sensor_id;sensor_type;location;lat;lon;timestamp;P1;durP1;ratioP1;P2;durP2;ratioP2
4732;SDS011;2380;53.668;10.008;2023-06-26T00:01:28;15.13;;;10.30;;
4732;SDS011;2380;53.668;10.008;2023-06-26T00:03:58;15.10;;;10.47;;
4732;SDS011;2380;53.668;10.008;2023-06-26T00:06:29;15.03;;;11.07;;
4732;SDS011;2380;53.668;10.008;2023-06-26T00:08:58;15.23;;;10.83;;
4732;SDS011;2380;53.668;10.008;2023-06-26T00:11:28;14.67;;;10.97;;
4732;SDS011;2380;53.668;10.008;2023-06-26T00:14:02;16.07;;;11.47;;
4732;SDS011;2380;53.668;10.008;2023-06-26T00:16:32;13.90;;;10.97;;
4732;SDS011;2380;53.668;10.008;2023-06-26T00:19:02;13.50;;;11.17;;
4732;SDS011;2380;53.668;10.008;2023-06-26T00:21:32;16.20;;;11.87;;
4732;SDS011;2380;53.668;10.008;2023-06-26T00:24:01;14.10;;;10.77;;
4732;SDS011;2380;53.668;10.008;2023-06-26T00:26:31;14.40;;;11.23;;
4732;SDS011;2380;53.668;10.008;2023-06-26T00:29:03;15.87;;;11.90;;
4732;SDS011;2380;53.668;10.008;2023-06-26T00:31:33;14.47;;;11.57;;
4732;SDS011;2380;53.668;10.008;2023-06-26T00:34:02;14.10;;;11.50;;
4732;SDS011;2380;53.668;10.008;2023-06-26T00:36:32;14.67;;;12.00;;
4732;SDS011;2380;53.668;10.008;2023-06-26T00:39:01;16.13;;;11.87;;
4732;SDS011;2380;53.668;10.008;2023-06-26T00:41:32;17.13;;;12.77;;
4732;SDS011;2380;53.668;10.008;2023-06-26T00:44:04;13.60;;;11.57;;
4732;SDS011;2380;53.668;10.008;2023-06-26T00:46:34;15.03;;;12.73;;
4732;SDS011;2380;53.668;10.008;2023-06-26T00:49:04;16.73;;;11.80;;
4732;SDS011;2380;53.668;10.008;2023-06-26T00:51:34;17.27;;;12.83;;
4732;SDS011;2380;53.668;10.008;2023-06-26T00:54:03;15.33;;;12.53;;
4732;SDS011;2380;53.668;10.008;2023-06-26T00:56:33;13.87;;;11.83;;
4732;SDS011;2380;53.668;10.008;2023-06-26T00:59:06;18.77;;;12.67;;
4732;SDS011;2380;53.668;10.008;2023-06-26T01:01:35;15.13;;;12.50;;
4732;SDS011;2380;53.668;10.008;2023-06-26T01:04:05;16.80;;;12.73;;
4732;SDS011;2380;53.668;10.008;2023-06-26T01:06:34;16.20;;;11.70;;
4732;SDS011;2380;53.668;10.008;2023-06-26T01:09:04;15.67;;;13.03;;
4732;SDS011;2380;53.668;10.008;2023-06-26T01:11:34;16.07;;;12.40;;
4732;SDS011;2380;53.668;10.008;2023-06-26T01:14:06;15.50;;;12.80;;
4732;SDS011;2380;53.668;10.008;2023-06-26T01:16:36;17.57;;;13.50;;
4732;SDS011;2380;53.668;10.008;2023-06-26T01:19:07;24.60;;;13.80;;
4732;SDS011;2380;53.668;10.008;2023-06-26T01:21:40;14.53;;;12.27;;
4732;SDS011;2380;53.668;10.008;2023-06-26T01:24:12;16.23;;;13.57;;
4732;SDS011;2380;53.668;10.008;2023-06-26T01:26:49;16.67;;;13.10;;
4732;SDS011;2380;53.668;10.008;2023-06-26T01:29:20;16.20;;;12.43;;
4732;SDS011;2380;53.668;10.008;2023-06-26T01:31:51;16.27;;;13.27;;
4732;SDS011;2380;53.668;10.008;2023-06-26T01:34:21;15.13;;;13.53;;
4732;SDS011;2380;53.668;10.008;2023-06-26T01:36:50;16.37;;;13.77;;
4732;SDS011;2380;53.668;10.008;2023-06-26T01:39:20;18.33;;;13.50;;
4732;SDS011;2380;53.668;10.008;2023-06-26T01:41:52;18.43;;;13.17;;
4732;SDS011;2380;53.668;10.008;2023-06-26T01:44:25;17.23;;;14.27;;
4732;SDS011;2380;53.668;10.008;2023-06-26T01:46:59;17.60;;;14.13;;
4732;SDS011;2380;53.668;10.008;2023-06-26T01:49:37;16.23;;;13.13;;
4732;SDS011;2380;53.668;10.008;2023-06-26T01:52:12;14.93;;;12.93;;
4732;SDS011;2380;53.668;10.008;2023-06-26T01:54:47;18.30;;;14.90;;
4732;SDS011;2380;53.668;10.008;2023-06-26T01:57:27;18.30;;;14.97;;
4732;SDS011;2380;53.668;10.008;2023-06-26T01:59:59;17.33;;;13.27;;
4732;SDS011;2380;53.668;10.008;2023-06-26T02:02:28;17.17;;;14.10;;
4732;SDS011;2380;53.668;10.008;2023-06-26T02:04:58;15.73;;;13.70;;
4732;SDS011;2380;53.668;10.008;2023-06-26T02:07:28;16.10;;;14.00;;
4732;SDS011;2380;53.668;10.008;2023-06-26T02:09:57;19.10;;;14.07;;
4732;SDS011;2380;53.668;10.008;2023-06-26T02:12:29;16.90;;;13.73;;
4732;SDS011;2380;53.668;10.008;2023-06-26T02:14:59;16.53;;;13.47;;
4732;SDS011;2380;53.668;10.008;2023-06-26T02:17:29;16.70;;;13.80;;
4732;SDS011;2380;53.668;10.008;2023-06-26T02:19:59;16.73;;;13.20;;
4732;SDS011;2380;53.668;10.008;2023-06-26T02:22:28;17.43;;;13.47;;
4732;SDS011;2380;53.668;10.008;2023-06-26T02:24:58;17.10;;;13.47;;
4732;SDS011;2380;53.668;10.008;2023-06-26T02:27:30;15.27;;;13.63;;
4732;SDS011;2380;53.668;10.008;2023-06-26T02:29:59;15.27;;;13.20;;
4732;SDS011;2380;53.668;10.008;2023-06-26T02:32:29;17.73;;;12.93;;
4732;SDS011;2380;53.668;10.008;2023-06-26T02:34:58;18.17;;;13.37;;
4732;SDS011;2380;53.668;10.008;2023-06-26T02:37:28;15.20;;;13.03;;
4732;SDS011;2380;53.668;10.008;2023-06-26T02:39:57;14.70;;;13.13;;
4732;SDS011;2380;53.668;10.008;2023-06-26T02:42:29;15.87;;;13.23;;
4732;SDS011;2380;53.668;10.008;2023-06-26T02:44:59;15.03;;;13.20;;
4732;SDS011;2380;53.668;10.008;2023-06-26T02:47:29;16.47;;;13.83;;
4732;SDS011;2380;53.668;10.008;2023-06-26T02:49:59;16.13;;;13.17;;
4732;SDS011;2380;53.668;10.008;2023-06-26T02:52:28;17.03;;;12.87;;
4732;SDS011;2380;53.668;10.008;2023-06-26T02:54:58;17.90;;;12.90;;
4732;SDS011;2380;53.668;10.008;2023-06-26T02:57:30;17.37;;;14.13;;
4732;SDS011;2380;53.668;10.008;2023-06-26T03:00:00;15.47;;;13.27;;
4732;SDS011;2380;53.668;10.008;2023-06-26T03:02:33;16.30;;;13.20;;
4732;SDS011;2380;53.668;10.008;2023-06-26T03:05:03;17.10;;;13.00;;
4732;SDS011;2380;53.668;10.008;2023-06-26T03:07:33;18.03;;;13.40;;
4732;SDS011;2380;53.668;10.008;2023-06-26T03:10:02;18.83;;;14.07;;
4732;SDS011;2380;53.668;10.008;2023-06-26T03:12:35;15.40;;;12.67;;
4732;SDS011;2380;53.668;10.008;2023-06-26T03:15:05;18.63;;;14.20;;
4732;SDS011;2380;53.668;10.008;2023-06-26T03:17:35;16.67;;;12.13;;
4732;SDS011;2380;53.668;10.008;2023-06-26T03:20:05;15.37;;;12.67;;
4732;SDS011;2380;53.668;10.008;2023-06-26T03:22:36;16.10;;;13.17;;
4732;SDS011;2380;53.668;10.008;2023-06-26T03:25:06;18.17;;;12.93;;
4732;SDS011;2380;53.668;10.008;2023-06-26T03:27:38;15.50;;;12.60;;
4732;SDS011;2380;53.668;10.008;2023-06-26T03:30:08;14.97;;;12.83;;
4732;SDS011;2380;53.668;10.008;2023-06-26T03:32:39;16.30;;;12.47;;
4732;SDS011;2380;53.668;10.008;2023-06-26T03:35:09;15.43;;;12.67;;
4732;SDS011;2380;53.668;10.008;2023-06-26T03:37:38;18.20;;;12.07;;
4732;SDS011;2380;53.668;10.008;2023-06-26T03:40:09;13.93;;;11.80;;
4732;SDS011;2380;53.668;10.008;2023-06-26T03:42:42;14.23;;;12.30;;
4732;SDS011;2380;53.668;10.008;2023-06-26T03:45:11;15.13;;;11.80;;
4732;SDS011;2380;53.668;10.008;2023-06-26T03:47:41;13.87;;;11.70;;
4732;SDS011;2380;53.668;10.008;2023-06-26T03:50:13;14.57;;;12.03;;
4732;SDS011;2380;53.668;10.008;2023-06-26T03:52:43;17.53;;;13.30;;
4732;SDS011;2380;53.668;10.008;2023-06-26T03:55:12;14.40;;;11.87;;
4732;SDS011;2380;53.668;10.008;2023-06-26T03:57:47;15.63;;;11.80;;
4732;SDS011;2380;53.668;10.008;2023-06-26T04:00:17;16.17;;;11.77;;
4732;SDS011;2380;53.668;10.008;2023-06-26T04:02:47;17.40;;;11.67;;
4732;SDS011;2380;53.668;10.008;2023-06-26T04:05:17;14.23;;;12.03;;
4732;SDS011;2380;53.668;10.008;2023-06-26T04:07:49;15.93;;;11.93;;
4732;SDS011;2380;53.668;10.008;2023-06-26T04:10:19;12.17;;;10.77;;
4732;SDS011;2380;53.668;10.008;2023-06-26T04:12:52;15.80;;;12.50;;
4732;SDS011;2380;53.668;10.008;2023-06-26T04:15:21;13.40;;;11.40;;
4732;SDS011;2380;53.668;10.008;2023-06-26T04:17:51;13.87;;;10.77;;
4732;SDS011;2380;53.668;10.008;2023-06-26T04:20:20;14.53;;;11.33;;
4732;SDS011;2380;53.668;10.008;2023-06-26T04:22:50;13.90;;;10.93;;
4732;SDS011;2380;53.668;10.008;2023-06-26T04:25:20;14.03;;;10.87;;
4732;SDS011;2380;53.668;10.008;2023-06-26T04:27:52;14.60;;;9.83;;
4732;SDS011;2380;53.668;10.008;2023-06-26T04:30:21;14.20;;;11.47;;
4732;SDS011;2380;53.668;10.008;2023-06-26T04:32:51;13.63;;;10.50;;
4732;SDS011;2380;53.668;10.008;2023-06-26T04:35:24;14.43;;;11.53;;
4732;SDS011;2380;53.668;10.008;2023-06-26T04:37:53;18.53;;;11.07;;
4732;SDS011;2380;53.668;10.008;2023-06-26T04:40:23;12.77;;;10.53;;
4732;SDS011;2380;53.668;10.008;2023-06-26T04:42:55;14.77;;;11.50;;
4732;SDS011;2380;53.668;10.008;2023-06-26T04:45:25;12.90;;;10.43;;
4732;SDS011;2380;53.668;10.008;2023-06-26T04:47:54;16.60;;;10.33;;
4732;SDS011;2380;53.668;10.008;2023-06-26T04:50:24;12.70;;;10.53;;
4732;SDS011;2380;53.668;10.008;2023-06-26T04:52:55;11.93;;;10.13;;
4732;SDS011;2380;53.668;10.008;2023-06-26T04:55:25;14.37;;;10.37;;
4732;SDS011;2380;53.668;10.008;2023-06-26T04:57:57;11.90;;;10.60;;
4732;SDS011;2380;53.668;10.008;2023-06-26T05:00:26;14.17;;;10.77;;
4732;SDS011;2380;53.668;10.008;2023-06-26T05:02:56;19.00;;;11.83;;
4732;SDS011;2380;53.668;10.008;2023-06-26T05:05:28;16.63;;;11.00;;
4732;SDS011;2380;53.668;10.008;2023-06-26T05:07:57;14.57;;;10.87;;
4732;SDS011;2380;53.668;10.008;2023-06-26T05:10:27;13.73;;;10.17;;
4732;SDS011;2380;53.668;10.008;2023-06-26T05:12:59;12.60;;;10.07;;
4732;SDS011;2380;53.668;10.008;2023-06-26T05:15:29;14.00;;;10.90;;
4732;SDS011;2380;53.668;10.008;2023-06-26T05:17:58;14.60;;;10.17;;
4732;SDS011;2380;53.668;10.008;2023-06-26T05:20:28;15.80;;;12.03;;
4732;SDS011;2380;53.668;10.008;2023-06-26T05:22:58;12.80;;;9.90;;
4732;SDS011;2380;53.668;10.008;2023-06-26T05:25:27;12.43;;;9.03;;
4732;SDS011;2380;53.668;10.008;2023-06-26T05:28:01;15.57;;;11.87;;
4732;SDS011;2380;53.668;10.008;2023-06-26T05:30:32;14.83;;;9.33;;
4732;SDS011;2380;53.668;10.008;2023-06-26T05:33:04;13.27;;;9.43;;
4732;SDS011;2380;53.668;10.008;2023-06-26T05:35:34;12.97;;;8.70;;
4732;SDS011;2380;53.668;10.008;2023-06-26T05:38:05;12.20;;;9.47;;
4732;SDS011;2380;53.668;10.008;2023-06-26T05:40:36;11.57;;;9.00;;
4732;SDS011;2380;53.668;10.008;2023-06-26T05:43:10;14.70;;;8.63;;
4732;SDS011;2380;53.668;10.008;2023-06-26T05:45:40;13.87;;;8.57;;
4732;SDS011;2380;53.668;10.008;2023-06-26T05:48:10;11.97;;;9.37;;
4732;SDS011;2380;53.668;10.008;2023-06-26T05:50:40;11.50;;;8.87;;
4732;SDS011;2380;53.668;10.008;2023-06-26T05:53:11;11.43;;;8.17;;
4732;SDS011;2380;53.668;10.008;2023-06-26T05:55:42;11.33;;;8.23;;
4732;SDS011;2380;53.668;10.008;2023-06-26T05:58:14;12.50;;;8.43;;
4732;SDS011;2380;53.668;10.008;2023-06-26T06:00:45;12.47;;;8.80;;
4732;SDS011;2380;53.668;10.008;2023-06-26T06:03:14;13.10;;;8.07;;
4732;SDS011;2380;53.668;10.008;2023-06-26T06:05:44;12.50;;;8.63;;
4732;SDS011;2380;53.668;10.008;2023-06-26T06:08:14;11.87;;;9.10;;
4732;SDS011;2380;53.668;10.008;2023-06-26T06:10:43;12.70;;;8.47;;
4732;SDS011;2380;53.668;10.008;2023-06-26T06:13:15;12.97;;;8.77;;
4732;SDS011;2380;53.668;10.008;2023-06-26T06:15:45;12.40;;;8.80;;
4732;SDS011;2380;53.668;10.008;2023-06-26T06:18:15;11.73;;;8.30;;
4732;SDS011;2380;53.668;10.008;2023-06-26T06:20:44;24.03;;;13.50;;
4732;SDS011;2380;53.668;10.008;2023-06-26T06:23:14;11.70;;;8.70;;
4732;SDS011;2380;53.668;10.008;2023-06-26T06:25:43;28.67;;;13.60;;
4732;SDS011;2380;53.668;10.008;2023-06-26T06:28:15;23.90;;;10.30;;
4732;SDS011;2380;53.668;10.008;2023-06-26T06:30:45;10.37;;;8.00;;
4732;SDS011;2380;53.668;10.008;2023-06-26T06:33:15;12.73;;;9.20;;
4732;SDS011;2380;53.668;10.008;2023-06-26T06:35:45;28.37;;;14.23;;
4732;SDS011;2380;53.668;10.008;2023-06-26T06:38:14;26.93;;;13.50;;
4732;SDS011;2380;53.668;10.008;2023-06-26T06:40:44;12.40;;;8.80;;
4732;SDS011;2380;53.668;10.008;2023-06-26T06:43:16;15.43;;;8.33;;
4732;SDS011;2380;53.668;10.008;2023-06-26T06:45:46;42.33;;;26.00;;
4732;SDS011;2380;53.668;10.008;2023-06-26T06:48:15;11.40;;;8.80;;
4732;SDS011;2380;53.668;10.008;2023-06-26T06:50:45;14.90;;;8.33;;
4732;SDS011;2380;53.668;10.008;2023-06-26T06:53:14;14.97;;;10.30;;
4732;SDS011;2380;53.668;10.008;2023-06-26T06:55:46;10.97;;;8.30;;
4732;SDS011;2380;53.668;10.008;2023-06-26T06:58:19;11.80;;;8.60;;
4732;SDS011;2380;53.668;10.008;2023-06-26T07:00:49;13.47;;;8.00;;
4732;SDS011;2380;53.668;10.008;2023-06-26T07:03:18;18.20;;;12.53;;
4732;SDS011;2380;53.668;10.008;2023-06-26T07:05:48;11.67;;;8.00;;
4732;SDS011;2380;53.668;10.008;2023-06-26T07:08:18;11.30;;;7.83;;
4732;SDS011;2380;53.668;10.008;2023-06-26T07:10:47;12.97;;;9.13;;
4732;SDS011;2380;53.668;10.008;2023-06-26T07:13:20;12.53;;;8.00;;
4732;SDS011;2380;53.668;10.008;2023-06-26T07:15:50;12.57;;;9.40;;
4732;SDS011;2380;53.668;10.008;2023-06-26T07:18:20;18.17;;;11.50;;
4732;SDS011;2380;53.668;10.008;2023-06-26T07:20:49;12.03;;;8.33;;
4732;SDS011;2380;53.668;10.008;2023-06-26T07:23:19;15.50;;;9.90;;
4732;SDS011;2380;53.668;10.008;2023-06-26T07:25:49;18.37;;;11.10;;
4732;SDS011;2380;53.668;10.008;2023-06-26T07:28:21;16.53;;;9.57;;
4732;SDS011;2380;53.668;10.008;2023-06-26T07:30:50;14.13;;;9.80;;
4732;SDS011;2380;53.668;10.008;2023-06-26T07:33:20;10.43;;;8.37;;
4732;SDS011;2380;53.668;10.008;2023-06-26T07:35:50;13.30;;;8.93;;
4732;SDS011;2380;53.668;10.008;2023-06-26T07:38:19;16.67;;;9.60;;
4732;SDS011;2380;53.668;10.008;2023-06-26T07:40:49;12.77;;;8.80;;
4732;SDS011;2380;53.668;10.008;2023-06-26T07:43:21;20.67;;;13.70;;
4732;SDS011;2380;53.668;10.008;2023-06-26T07:45:51;14.67;;;10.97;;
4732;SDS011;2380;53.668;10.008;2023-06-26T07:48:24;17.17;;;9.80;;
4732;SDS011;2380;53.668;10.008;2023-06-26T07:50:54;15.23;;;8.90;;
4732;SDS011;2380;53.668;10.008;2023-06-26T07:53:24;20.93;;;12.03;;
4732;SDS011;2380;53.668;10.008;2023-06-26T07:55:53;18.90;;;10.70;;
4732;SDS011;2380;53.668;10.008;2023-06-26T07:58:25;18.17;;;9.23;;
4732;SDS011;2380;53.668;10.008;2023-06-26T08:00:55;16.00;;;10.30;;
4732;SDS011;2380;53.668;10.008;2023-06-26T08:03:25;17.47;;;11.33;;
4732;SDS011;2380;53.668;10.008;2023-06-26T08:06:01;15.97;;;10.60;;
4732;SDS011;2380;53.668;10.008;2023-06-26T08:08:30;17.30;;;9.80;;
4732;SDS011;2380;53.668;10.008;2023-06-26T08:11:00;22.03;;;11.30;;
4732;SDS011;2380;53.668;10.008;2023-06-26T08:13:32;19.60;;;9.90;;
4732;SDS011;2380;53.668;10.008;2023-06-26T08:16:01;18.10;;;9.37;;
4732;SDS011;2380;53.668;10.008;2023-06-26T08:18:31;12.07;;;8.57;;
4732;SDS011;2380;53.668;10.008;2023-06-26T08:21:00;14.67;;;9.07;;
4732;SDS011;2380;53.668;10.008;2023-06-26T08:23:30;14.00;;;7.90;;
4732;SDS011;2380;53.668;10.008;2023-06-26T08:26:00;12.03;;;8.70;;
4732;SDS011;2380;53.668;10.008;2023-06-26T08:28:32;15.43;;;8.77;;
4732;SDS011;2380;53.668;10.008;2023-06-26T08:31:01;13.57;;;8.83;;
4732;SDS011;2380;53.668;10.008;2023-06-26T08:33:31;13.90;;;8.17;;
4732;SDS011;2380;53.668;10.008;2023-06-26T08:36:00;13.80;;;9.27;;
4732;SDS011;2380;53.668;10.008;2023-06-26T08:38:30;14.10;;;8.93;;
4732;SDS011;2380;53.668;10.008;2023-06-26T08:40:59;13.70;;;9.60;;
4732;SDS011;2380;53.668;10.008;2023-06-26T08:43:32;15.70;;;10.50;;
4732;SDS011;2380;53.668;10.008;2023-06-26T08:46:02;13.33;;;9.80;;
4732;SDS011;2380;53.668;10.008;2023-06-26T08:48:32;14.53;;;9.40;;
4732;SDS011;2380;53.668;10.008;2023-06-26T08:51:04;11.87;;;8.70;;
4732;SDS011;2380;53.668;10.008;2023-06-26T08:53:37;16.60;;;9.20;;
4732;SDS011;2380;53.668;10.008;2023-06-26T08:56:10;14.30;;;9.00;;
4732;SDS011;2380;53.668;10.008;2023-06-26T08:58:44;15.20;;;9.77;;
4732;SDS011;2380;53.668;10.008;2023-06-26T09:01:14;12.70;;;8.30;;
4732;SDS011;2380;53.668;10.008;2023-06-26T09:03:45;10.63;;;7.63;;
4732;SDS011;2380;53.668;10.008;2023-06-26T09:06:17;12.73;;;7.87;;
4732;SDS011;2380;53.668;10.008;2023-06-26T09:08:47;17.63;;;11.03;;
4732;SDS011;2380;53.668;10.008;2023-06-26T09:11:16;21.93;;;14.90;;
4732;SDS011;2380;53.668;10.008;2023-06-26T09:13:49;20.80;;;11.43;;
4732;SDS011;2380;53.668;10.008;2023-06-26T09:16:23;25.40;;;16.43;;
4732;SDS011;2380;53.668;10.008;2023-06-26T09:18:53;15.80;;;10.07;;
4732;SDS011;2380;53.668;10.008;2023-06-26T09:21:26;22.83;;;13.70;;
4732;SDS011;2380;53.668;10.008;2023-06-26T09:23:56;20.93;;;14.07;;
4732;SDS011;2380;53.668;10.008;2023-06-26T09:26:26;17.90;;;11.63;;
4732;SDS011;2380;53.668;10.008;2023-06-26T09:28:58;21.10;;;13.13;;
4732;SDS011;2380;53.668;10.008;2023-06-26T09:31:28;24.10;;;14.33;;
4732;SDS011;2380;53.668;10.008;2023-06-26T09:34:07;17.93;;;11.93;;
4732;SDS011;2380;53.668;10.008;2023-06-26T09:36:37;22.30;;;12.87;;
4732;SDS011;2380;53.668;10.008;2023-06-26T09:39:08;17.90;;;11.10;;
4732;SDS011;2380;53.668;10.008;2023-06-26T09:41:41;18.20;;;10.57;;
4732;SDS011;2380;53.668;10.008;2023-06-26T09:44:14;24.23;;;13.80;;
4732;SDS011;2380;53.668;10.008;2023-06-26T09:46:45;15.83;;;11.33;;
4732;SDS011;2380;53.668;10.008;2023-06-26T09:49:14;20.60;;;11.70;;
4732;SDS011;2380;53.668;10.008;2023-06-26T09:51:44;18.00;;;11.23;;
4732;SDS011;2380;53.668;10.008;2023-06-26T09:54:15;22.97;;;12.93;;
4732;SDS011;2380;53.668;10.008;2023-06-26T09:56:45;18.00;;;12.03;;
4732;SDS011;2380;53.668;10.008;2023-06-26T09:59:17;15.50;;;10.33;;
4732;SDS011;2380;53.668;10.008;2023-06-26T10:01:47;15.23;;;10.83;;
4732;SDS011;2380;53.668;10.008;2023-06-26T10:04:17;21.67;;;14.20;;
4732;SDS011;2380;53.668;10.008;2023-06-26T10:06:48;18.60;;;12.50;;
4732;SDS011;2380;53.668;10.008;2023-06-26T10:09:20;24.57;;;12.03;;
4732;SDS011;2380;53.668;10.008;2023-06-26T10:11:55;15.20;;;9.80;;
4732;SDS011;2380;53.668;10.008;2023-06-26T10:14:32;46.93;;;22.47;;
4732;SDS011;2380;53.668;10.008;2023-06-26T10:17:04;18.80;;;11.77;;
4732;SDS011;2380;53.668;10.008;2023-06-26T10:19:35;66.23;;;27.60;;
4732;SDS011;2380;53.668;10.008;2023-06-26T10:22:07;37.83;;;17.03;;
4732;SDS011;2380;53.668;10.008;2023-06-26T10:24:37;21.87;;;13.17;;
4732;SDS011;2380;53.668;10.008;2023-06-26T10:27:19;53.70;;;25.60;;
4732;SDS011;2380;53.668;10.008;2023-06-26T10:29:53;24.63;;;16.83;;
4732;SDS011;2380;53.668;10.008;2023-06-26T10:32:25;26.60;;;16.80;;
4732;SDS011;2380;53.668;10.008;2023-06-26T10:34:55;26.07;;;17.57;;
4732;SDS011;2380;53.668;10.008;2023-06-26T10:37:40;29.30;;;15.60;;
4732;SDS011;2380;53.668;10.008;2023-06-26T10:40:10;19.53;;;12.80;;
4732;SDS011;2380;53.668;10.008;2023-06-26T10:42:40;18.50;;;13.03;;
4732;SDS011;2380;53.668;10.008;2023-06-26T10:45:13;107.67;;;37.03;;
4732;SDS011;2380;53.668;10.008;2023-06-26T10:47:45;46.47;;;22.07;;
4732;SDS011;2380;53.668;10.008;2023-06-26T10:50:19;29.70;;;14.60;;
4732;SDS011;2380;53.668;10.008;2023-06-26T10:55:41;17.10;;;11.17;;
4732;SDS011;2380;53.668;10.008;2023-06-26T11:01:19;16.27;;;10.80;;
4732;SDS011;2380;53.668;10.008;2023-06-26T11:06:38;35.57;;;22.90;;
4732;SDS011;2380;53.668;10.008;2023-06-26T11:09:09;27.40;;;16.27;;
4732;SDS011;2380;53.668;10.008;2023-06-26T11:11:58;28.77;;;15.80;;
4732;SDS011;2380;53.668;10.008;2023-06-26T11:14:31;15.77;;;12.57;;
4732;SDS011;2380;53.668;10.008;2023-06-26T11:17:04;20.60;;;12.87;;
4732;SDS011;2380;53.668;10.008;2023-06-26T11:19:35;15.30;;;10.97;;
4732;SDS011;2380;53.668;10.008;2023-06-26T11:22:05;29.10;;;15.00;;
4732;SDS011;2380;53.668;10.008;2023-06-26T11:24:35;19.47;;;11.80;;
4732;SDS011;2380;53.668;10.008;2023-06-26T11:27:05;23.50;;;9.20;;
4732;SDS011;2380;53.668;10.008;2023-06-26T11:29:35;18.10;;;8.63;;
4732;SDS011;2380;53.668;10.008;2023-06-26T11:32:08;23.10;;;9.30;;
4732;SDS011;2380;53.668;10.008;2023-06-26T11:34:37;19.03;;;8.37;;
4732;SDS011;2380;53.668;10.008;2023-06-26T11:37:09;16.73;;;7.90;;
4732;SDS011;2380;53.668;10.008;2023-06-26T11:39:38;14.80;;;7.43;;
4732;SDS011;2380;53.668;10.008;2023-06-26T11:42:08;21.80;;;8.00;;
4732;SDS011;2380;53.668;10.008;2023-06-26T11:44:40;16.87;;;7.97;;
4732;SDS011;2380;53.668;10.008;2023-06-26T11:47:18;15.00;;;6.00;;
4732;SDS011;2380;53.668;10.008;2023-06-26T11:49:49;21.10;;;6.43;;
4732;SDS011;2380;53.668;10.008;2023-06-26T11:52:18;10.13;;;4.07;;
4732;SDS011;2380;53.668;10.008;2023-06-26T11:54:48;14.70;;;3.70;;
4732;SDS011;2380;53.668;10.008;2023-06-26T11:57:18;10.30;;;3.03;;
4732;SDS011;2380;53.668;10.008;2023-06-26T11:59:49;8.20;;;3.37;;
4732;SDS011;2380;53.668;10.008;2023-06-26T12:02:23;13.80;;;3.00;;
4732;SDS011;2380;53.668;10.008;2023-06-26T12:04:52;10.97;;;3.10;;
4732;SDS011;2380;53.668;10.008;2023-06-26T12:07:22;11.57;;;2.77;;
4732;SDS011;2380;53.668;10.008;2023-06-26T12:09:52;12.23;;;2.90;;
4732;SDS011;2380;53.668;10.008;2023-06-26T12:12:24;11.50;;;3.10;;
4732;SDS011;2380;53.668;10.008;2023-06-26T12:14:54;7.10;;;2.97;;
4732;SDS011;2380;53.668;10.008;2023-06-26T12:17:27;10.80;;;3.27;;
4732;SDS011;2380;53.668;10.008;2023-06-26T12:19:57;8.63;;;3.33;;
4732;SDS011;2380;53.668;10.008;2023-06-26T12:22:33;8.80;;;3.00;;
4732;SDS011;2380;53.668;10.008;2023-06-26T12:25:03;10.47;;;3.57;;
4732;SDS011;2380;53.668;10.008;2023-06-26T12:27:36;9.33;;;3.10;;
4732;SDS011;2380;53.668;10.008;2023-06-26T12:30:06;12.17;;;3.60;;
4732;SDS011;2380;53.668;10.008;2023-06-26T12:32:39;10.40;;;2.83;;
4732;SDS011;2380;53.668;10.008;2023-06-26T12:35:09;13.13;;;3.30;;
4732;SDS011;2380;53.668;10.008;2023-06-26T12:37:39;8.50;;;2.80;;
4732;SDS011;2380;53.668;10.008;2023-06-26T12:40:17;7.90;;;3.00;;
4732;SDS011;2380;53.668;10.008;2023-06-26T12:42:49;9.63;;;2.97;;
4732;SDS011;2380;53.668;10.008;2023-06-26T12:45:18;7.70;;;3.20;;
4732;SDS011;2380;53.668;10.008;2023-06-26T12:48:08;9.70;;;2.93;;
4732;SDS011;2380;53.668;10.008;2023-06-26T12:50:43;8.47;;;2.57;;
4732;SDS011;2380;53.668;10.008;2023-06-26T12:53:14;11.07;;;3.80;;
4732;SDS011;2380;53.668;10.008;2023-06-26T12:55:44;12.00;;;2.90;;
4732;SDS011;2380;53.668;10.008;2023-06-26T12:58:14;10.30;;;2.87;;
4732;SDS011;2380;53.668;10.008;2023-06-26T13:00:44;7.50;;;2.83;;
4732;SDS011;2380;53.668;10.008;2023-06-26T13:03:16;10.37;;;2.60;;
4732;SDS011;2380;53.668;10.008;2023-06-26T13:05:47;7.60;;;2.73;;
4732;SDS011;2380;53.668;10.008;2023-06-26T13:08:17;9.00;;;2.53;;
4732;SDS011;2380;53.668;10.008;2023-06-26T13:10:46;7.80;;;2.70;;
4732;SDS011;2380;53.668;10.008;2023-06-26T13:13:16;10.50;;;2.73;;
4732;SDS011;2380;53.668;10.008;2023-06-26T13:15:46;32.73;;;10.40;;
4732;SDS011;2380;53.668;10.008;2023-06-26T13:18:18;7.00;;;2.50;;
4732;SDS011;2380;53.668;10.008;2023-06-26T13:20:48;11.80;;;2.50;;
4732;SDS011;2380;53.668;10.008;2023-06-26T13:23:17;9.87;;;3.07;;
4732;SDS011;2380;53.668;10.008;2023-06-26T13:25:47;6.87;;;2.40;;
4732;SDS011;2380;53.668;10.008;2023-06-26T13:28:18;12.03;;;2.47;;
4732;SDS011;2380;53.668;10.008;2023-06-26T13:30:47;8.03;;;2.33;;
4732;SDS011;2380;53.668;10.008;2023-06-26T13:33:20;9.80;;;3.53;;
4732;SDS011;2380;53.668;10.008;2023-06-26T13:35:51;9.63;;;3.80;;
4732;SDS011;2380;53.668;10.008;2023-06-26T13:38:21;13.03;;;3.10;;
4732;SDS011;2380;53.668;10.008;2023-06-26T13:40:53;7.07;;;2.50;;
4732;SDS011;2380;53.668;10.008;2023-06-26T13:43:23;9.20;;;2.40;;
4732;SDS011;2380;53.668;10.008;2023-06-26T13:45:53;8.50;;;2.23;;
4732;SDS011;2380;53.668;10.008;2023-06-26T13:48:26;6.80;;;2.27;;
4732;SDS011;2380;53.668;10.008;2023-06-26T13:50:56;5.77;;;2.10;;
4732;SDS011;2380;53.668;10.008;2023-06-26T13:53:26;8.67;;;3.33;;
4732;SDS011;2380;53.668;10.008;2023-06-26T13:55:57;8.63;;;2.17;;
4732;SDS011;2380;53.668;10.008;2023-06-26T13:58:27;8.70;;;3.03;;
4732;SDS011;2380;53.668;10.008;2023-06-26T14:00:58;6.57;;;2.17;;
4732;SDS011;2380;53.668;10.008;2023-06-26T14:03:31;6.33;;;2.07;;
4732;SDS011;2380;53.668;10.008;2023-06-26T14:06:01;12.70;;;3.90;;
4732;SDS011;2380;53.668;10.008;2023-06-26T14:08:30;6.33;;;1.87;;
4732;SDS011;2380;53.668;10.008;2023-06-26T14:11:00;4.60;;;2.00;;
4732;SDS011;2380;53.668;10.008;2023-06-26T14:13:30;5.90;;;1.77;;
4732;SDS011;2380;53.668;10.008;2023-06-26T14:15:59;6.20;;;1.80;;
4732;SDS011;2380;53.668;10.008;2023-06-26T14:18:32;4.20;;;1.50;;
4732;SDS011;2380;53.668;10.008;2023-06-26T14:21:02;5.93;;;1.70;;
4732;SDS011;2380;53.668;10.008;2023-06-26T14:23:31;13.00;;;2.73;;
4732;SDS011;2380;53.668;10.008;2023-06-26T14:26:01;9.10;;;2.60;;
4732;SDS011;2380;53.668;10.008;2023-06-26T14:28:30;8.07;;;2.70;;
4732;SDS011;2380;53.668;10.008;2023-06-26T14:31:00;9.90;;;3.80;;
4732;SDS011;2380;53.668;10.008;2023-06-26T14:33:32;8.30;;;2.47;;
4732;SDS011;2380;53.668;10.008;2023-06-26T14:36:02;6.93;;;2.33;;
4732;SDS011;2380;53.668;10.008;2023-06-26T14:38:31;5.20;;;1.73;;
4732;SDS011;2380;53.668;10.008;2023-06-26T14:41:01;3.80;;;1.67;;
4732;SDS011;2380;53.668;10.008;2023-06-26T14:43:31;5.67;;;2.40;;
4732;SDS011;2380;53.668;10.008;2023-06-26T14:46:01;6.37;;;1.80;;
4732;SDS011;2380;53.668;10.008;2023-06-26T14:48:34;6.63;;;2.33;;
4732;SDS011;2380;53.668;10.008;2023-06-26T14:51:04;7.03;;;2.20;;
4732;SDS011;2380;53.668;10.008;2023-06-26T14:53:33;8.30;;;2.10;;
4732;SDS011;2380;53.668;10.008;2023-06-26T14:56:03;13.73;;;5.33;;
4732;SDS011;2380;53.668;10.008;2023-06-26T14:58:34;13.10;;;4.00;;
4732;SDS011;2380;53.668;10.008;2023-06-26T15:01:04;34.27;;;11.50;;
4732;SDS011;2380;53.668;10.008;2023-06-26T15:03:36;9.60;;;2.40;;
4732;SDS011;2380;53.668;10.008;2023-06-26T15:06:06;8.20;;;2.10;;
4732;SDS011;2380;53.668;10.008;2023-06-26T15:08:36;28.43;;;15.03;;
4732;SDS011;2380;53.668;10.008;2023-06-26T15:11:06;6.00;;;2.43;;
4732;SDS011;2380;53.668;10.008;2023-06-26T15:13:35;5.20;;;2.10;;